createdAt,value
2018-12-26T00:01:02.089Z,1011.92
2018-12-26T00:02:11.410Z,1011.85
2018-12-26T00:03:21.237Z,1011.88
2018-12-26T00:04:31.336Z,1011.95
2018-12-26T00:05:41.518Z,1011.95
2018-12-26T00:06:51.668Z,1011.92
2018-12-26T00:08:03.279Z,1011.96
2018-12-26T00:09:14.203Z,1011.89
2018-12-26T00:10:24.258Z,1011.91
2018-12-26T00:11:34.341Z,1011.84
2018-12-26T00:12:44.430Z,1011.91
2018-12-26T00:13:54.496Z,1011.84
2018-12-26T00:15:04.584Z,1011.86
2018-12-26T00:16:15.238Z,1011.82
2018-12-26T00:17:25.069Z,1011.93
2018-12-26T00:18:34.921Z,1011.89
2018-12-26T00:19:45.476Z,1011.89
2018-12-26T00:20:55.915Z,1011.83
2018-12-26T00:22:05.967Z,1011.96
2018-12-26T00:23:16.044Z,1011.83
2018-12-26T00:24:25.617Z,1011.86
2018-12-26T00:25:35.414Z,1011.88
2018-12-26T00:26:45.466Z,1011.86
2018-12-26T00:27:55.513Z,1011.84
2018-12-26T00:29:05.319Z,1011.85
2018-12-26T00:30:15.142Z,1011.85
2018-12-26T00:31:25.240Z,1011.77
2018-12-26T00:32:35.309Z,1011.89
2018-12-26T00:33:45.611Z,1011.93
2018-12-26T00:34:55.722Z,1011.9
2018-12-26T00:36:07.177Z,1011.97
2018-12-26T00:37:17.277Z,1011.98
2018-12-26T00:38:27.497Z,1011.95
2018-12-26T00:39:37.617Z,1012
2018-12-26T00:40:48.598Z,1011.95
2018-12-26T00:41:58.762Z,1012.01
2018-12-26T00:43:09.490Z,1011.94
2018-12-26T00:44:19.639Z,1011.93
2018-12-26T00:45:29.704Z,1011.94
2018-12-26T00:46:39.775Z,1011.93
2018-12-26T00:47:49.906Z,1011.9
2018-12-26T00:48:59.974Z,1011.94
2018-12-26T00:50:09.774Z,1011.96
2018-12-26T00:51:19.597Z,1011.89
2018-12-26T00:52:29.653Z,1011.85
2018-12-26T00:53:39.734Z,1011.91
2018-12-26T00:54:49.811Z,1011.93
2018-12-26T00:55:59.864Z,1011.93
2018-12-26T00:57:18.049Z,1011.9
2018-12-26T00:58:28.110Z,1011.9
2018-12-26T00:59:38.159Z,1011.94
2018-12-26T01:00:48.226Z,1011.91
2018-12-26T01:01:58.309Z,1011.93
2018-12-26T01:03:08.108Z,1012
2018-12-26T01:04:18.174Z,1012.01
2018-12-26T01:05:28.240Z,1011.98
2018-12-26T01:06:38.510Z,1011.94
2018-12-26T01:07:48.587Z,1011.97
2018-12-26T01:08:58.702Z,1012
2018-12-26T01:10:08.253Z,1011.98
2018-12-26T01:11:18.303Z,1011.99
2018-12-26T01:12:28.357Z,1012
2018-12-26T01:13:38.431Z,1012.03
2018-12-26T01:14:48.522Z,1012.01
2018-12-26T01:15:58.598Z,1011.99
2018-12-26T01:17:09.108Z,1012.01
2018-12-26T01:18:18.911Z,1011.93
2018-12-26T01:19:28.468Z,1011.91
2018-12-26T01:20:38.273Z,1011.95
2018-12-26T01:21:48.051Z,1011.99
2018-12-26T01:22:57.846Z,1011.98
2018-12-26T01:24:09.294Z,1011.98
2018-12-26T01:25:19.115Z,1011.96
2018-12-26T01:26:29.210Z,1011.97
2018-12-26T01:27:38.498Z,1012
2018-12-26T01:28:48.573Z,1011.95
2018-12-26T01:29:58.366Z,1011.97
2018-12-26T01:31:10.058Z,1011.93
2018-12-26T01:32:19.333Z,1011.93
2018-12-26T01:33:29.384Z,1011.92
2018-12-26T01:34:39.530Z,1011.85
2018-12-26T01:35:49.386Z,1011.86
2018-12-26T01:37:01.199Z,1011.92
2018-12-26T01:38:11.047Z,1011.82
2018-12-26T01:39:21.102Z,1011.81
2018-12-26T01:40:31.147Z,1011.82
2018-12-26T01:41:40.935Z,1011.82
2018-12-26T01:42:50.742Z,1011.78
2018-12-26T01:44:00.888Z,1011.78
2018-12-26T01:45:10.934Z,1011.82
2018-12-26T01:46:20.748Z,1011.74
2018-12-26T01:47:30.805Z,1011.78
2018-12-26T01:48:40.594Z,1011.72
2018-12-26T01:49:50.772Z,1011.68
2018-12-26T01:51:00.876Z,1011.72
2018-12-26T01:52:10.940Z,1011.62
2018-12-26T01:53:20.990Z,1011.65
2018-12-26T01:54:31.144Z,1011.6
2018-12-26T01:55:41.251Z,1011.57
2018-12-26T01:56:51.326Z,1011.61
2018-12-26T01:58:01.373Z,1011.58
2018-12-26T01:59:11.423Z,1011.63
2018-12-26T02:00:21.494Z,1011.56
2018-12-26T02:01:31.572Z,1011.6
2018-12-26T02:02:41.748Z,1011.52
2018-12-26T02:03:51.798Z,1011.48
2018-12-26T02:05:01.609Z,1011.52
2018-12-26T02:06:11.662Z,1011.44
2018-12-26T02:07:21.527Z,1011.45
2018-12-26T02:08:31.596Z,1011.49
2018-12-26T02:09:41.708Z,1011.44
2018-12-26T02:10:51.268Z,1011.44
2018-12-26T02:12:01.838Z,1011.43
2018-12-26T02:13:11.720Z,1011.44
2018-12-26T02:14:21.319Z,1011.47
2018-12-26T02:15:31.370Z,1011.49
2018-12-26T02:16:41.157Z,1011.42
2018-12-26T02:17:51.242Z,1011.45
2018-12-26T02:19:02.493Z,1011.44
2018-12-26T02:20:12.284Z,1011.39
2018-12-26T02:21:22.330Z,1011.46
2018-12-26T02:22:32.384Z,1011.48
2018-12-26T02:23:42.440Z,1011.43
2018-12-26T02:24:52.298Z,1011.46
2018-12-26T02:26:02.081Z,1011.47
2018-12-26T02:27:12.137Z,1011.47
2018-12-26T02:28:22.186Z,1011.43
2018-12-26T02:29:32.245Z,1011.46
2018-12-26T02:30:42.368Z,1011.46
2018-12-26T02:31:52.436Z,1011.45
2018-12-26T02:33:02.379Z,1011.47
2018-12-26T02:34:11.918Z,1011.42
2018-12-26T02:35:21.981Z,1011.4
2018-12-26T02:36:32.052Z,1011.45
2018-12-26T02:37:41.863Z,1011.42
2018-12-26T02:38:51.920Z,1011.39
2018-12-26T02:40:01.728Z,1011.39
2018-12-26T02:41:11.791Z,1011.4
2018-12-26T02:42:21.891Z,1011.41
2018-12-26T02:43:31.971Z,1011.39
2018-12-26T02:44:42.015Z,1011.41
2018-12-26T02:45:51.861Z,1011.36
2018-12-26T02:47:01.908Z,1011.35
2018-12-26T02:48:12.009Z,1011.29
2018-12-26T02:49:21.540Z,1011.27
2018-12-26T02:50:31.353Z,1011.22
2018-12-26T02:51:41.402Z,1011.16
2018-12-26T02:52:51.468Z,1011.13
2018-12-26T02:54:01.896Z,1011.08
2018-12-26T02:55:11.959Z,1011.1
2018-12-26T02:56:21.761Z,1011.06
2018-12-26T02:57:31.308Z,1011.03
2018-12-26T02:58:41.370Z,1011
2018-12-26T02:59:51.425Z,1011.02
2018-12-26T03:01:01.947Z,1010.98
2018-12-26T03:02:12.027Z,1010.96
2018-12-26T03:34:57.978Z,1010.82
2018-12-26T03:36:08.023Z,1010.86
2018-12-26T03:37:18.088Z,1010.82
2018-12-26T03:38:28.175Z,1010.85
2018-12-26T03:39:38.466Z,1010.86
2018-12-26T03:40:48.562Z,1010.88
2018-12-26T03:41:58.607Z,1010.81
2018-12-26T03:43:08.680Z,1010.84
2018-12-26T03:44:18.477Z,1010.83
2018-12-26T03:45:28.261Z,1010.86
2018-12-26T03:46:38.104Z,1010.79
2018-12-26T03:47:48.257Z,1010.92
2018-12-26T03:48:58.321Z,1010.83
2018-12-26T03:50:09.571Z,1010.81
2018-12-26T03:51:19.620Z,1010.84
2018-12-26T03:52:29.496Z,1010.83
2018-12-26T03:53:39.289Z,1010.79
2018-12-26T03:54:49.341Z,1010.82
2018-12-26T03:55:59.395Z,1010.83
2018-12-26T03:57:09.570Z,1010.82
2018-12-26T03:58:19.693Z,1010.82
2018-12-26T03:59:29.768Z,1010.8
2018-12-26T04:00:39.834Z,1010.84
2018-12-26T04:01:50.026Z,1010.84
2018-12-26T04:02:59.874Z,1010.81
2018-12-26T04:04:09.739Z,1010.87
2018-12-26T04:05:19.811Z,1010.79
2018-12-26T04:06:29.597Z,1010.72
2018-12-26T04:07:39.456Z,1010.75
2018-12-26T04:08:49.256Z,1010.74
2018-12-26T04:09:59.089Z,1010.75
2018-12-26T04:11:08.907Z,1010.77
2018-12-26T04:12:18.707Z,1010.76
2018-12-26T04:13:28.517Z,1010.73
2018-12-26T04:14:38.486Z,1010.67
2018-12-26T04:15:48.288Z,1010.67
2018-12-26T04:16:58.399Z,1010.66
2018-12-26T04:18:08.581Z,1010.62
2018-12-26T04:19:18.370Z,1010.62
2018-12-26T04:20:28.449Z,1010.65
2018-12-26T04:21:38.288Z,1010.62
2018-12-26T04:22:48.080Z,1010.62
2018-12-26T04:23:58.149Z,1010.67
2018-12-26T04:25:07.942Z,1010.63
2018-12-26T04:26:17.996Z,1010.72
2018-12-26T04:27:28.102Z,1010.73
2018-12-26T04:28:38.156Z,1010.76
2018-12-26T04:29:48.214Z,1010.76
2018-12-26T04:30:58.069Z,1010.78
2018-12-26T04:32:08.115Z,1010.85
2018-12-26T04:33:18.152Z,1010.81
2018-12-26T04:34:27.944Z,1010.85
2018-12-26T04:35:37.997Z,1010.9
2018-12-26T04:36:48.046Z,1010.94
2018-12-26T04:37:58.115Z,1010.93
2018-12-26T04:39:08.161Z,1010.96
2018-12-26T04:40:18.230Z,1010.99
2018-12-26T04:41:28.136Z,1011.01
2018-12-26T04:42:38.221Z,1011.04
2018-12-26T04:43:48.275Z,1011.02
2018-12-26T04:44:59.229Z,1011
2018-12-26T04:46:08.779Z,1011.02
2018-12-26T04:47:18.952Z,1010.97
2018-12-26T04:48:29.035Z,1011.06
2018-12-26T04:49:39.071Z,1010.94
2018-12-26T04:50:48.659Z,1011.01
2018-12-26T04:51:58.712Z,1010.97
2018-12-26T04:53:08.767Z,1011
2018-12-26T04:54:18.814Z,1010.95
2018-12-26T04:55:28.876Z,1010.97
2018-12-26T04:56:38.987Z,1010.98
2018-12-26T04:57:48.789Z,1010.99
2018-12-26T04:58:58.610Z,1011.04
2018-12-26T05:00:08.899Z,1011.03
2018-12-26T05:01:19.499Z,1011.03
2018-12-26T05:02:29.370Z,1011
2018-12-26T05:03:39.425Z,1011.02
2018-12-26T05:04:49.623Z,1011.03
2018-12-26T05:05:59.681Z,1011.04
2018-12-26T05:07:09.729Z,1011.05
2018-12-26T05:08:19.776Z,1011.04
2018-12-26T05:09:29.837Z,1011.02
2018-12-26T05:10:39.983Z,1011.02
2018-12-26T05:11:50.058Z,1011.02
2018-12-26T05:12:59.871Z,1011
2018-12-26T05:14:09.945Z,1011.01
2018-12-26T05:15:19.990Z,1010.95
2018-12-26T05:16:29.796Z,1010.95
2018-12-26T05:17:39.839Z,1010.92
2018-12-26T05:18:49.611Z,1010.93
2018-12-26T05:19:59.658Z,1010.88
2018-12-26T05:21:09.720Z,1010.88
2018-12-26T05:22:19.600Z,1010.86
2018-12-26T05:23:29.748Z,1010.91
2018-12-26T05:24:39.794Z,1010.84
2018-12-26T05:25:49.768Z,1010.95
2018-12-26T05:26:59.845Z,1010.88
2018-12-26T05:28:10.020Z,1010.9
2018-12-26T05:29:19.870Z,1010.92
2018-12-26T05:30:29.657Z,1010.9
2018-12-26T05:31:39.746Z,1010.87
2018-12-26T05:32:49.788Z,1010.8
2018-12-26T05:33:59.852Z,1010.82
2018-12-26T05:35:10.345Z,1010.78
2018-12-26T05:36:20.383Z,1010.76
2018-12-26T05:37:30.266Z,1010.8
2018-12-26T05:38:40.051Z,1010.79
2018-12-26T05:39:49.860Z,1010.84
2018-12-26T05:40:59.908Z,1010.83
2018-12-26T05:42:09.954Z,1010.87
2018-12-26T05:43:20.029Z,1010.87
2018-12-26T05:44:30.088Z,1010.91
2018-12-26T05:45:39.877Z,1010.89
2018-12-26T05:46:49.945Z,1010.92
2018-12-26T05:48:00.002Z,1010.92
2018-12-26T05:49:10.458Z,1010.84
2018-12-26T05:50:20.703Z,1010.89
2018-12-26T05:51:30.773Z,1010.89
2018-12-26T05:52:40.825Z,1010.94
2018-12-26T05:53:50.875Z,1010.96
2018-12-26T05:55:00.927Z,1010.96
2018-12-26T05:56:10.715Z,1011.02
2018-12-26T05:57:20.492Z,1011.01
2018-12-26T05:58:30.557Z,1011.03
2018-12-26T05:59:40.610Z,1011.01
2018-12-26T06:00:50.676Z,1011.01
2018-12-26T06:02:00.841Z,1010.97
2018-12-26T06:03:10.890Z,1010.95
2018-12-26T06:04:20.943Z,1010.94
2018-12-26T06:05:31.087Z,1010.97
2018-12-26T06:06:40.910Z,1011.03
2018-12-26T06:07:51.019Z,1010.97
2018-12-26T06:09:01.079Z,1011.01
2018-12-26T06:10:11.222Z,1010.96
2018-12-26T06:11:21.317Z,1010.99
2018-12-26T06:12:31.361Z,1011.02
2018-12-26T06:13:41.424Z,1010.99
2018-12-26T06:14:51.482Z,1010.95
2018-12-26T06:16:01.794Z,1010.87
2018-12-26T06:17:11.843Z,1010.93
2018-12-26T06:18:21.689Z,1010.97
2018-12-26T06:19:31.754Z,1011
2018-12-26T06:20:41.540Z,1011
2018-12-26T06:21:51.342Z,1011
2018-12-26T06:23:01.393Z,1011.04
2018-12-26T06:24:11.196Z,1011.13
2018-12-26T06:25:21.243Z,1011.11
2018-12-26T06:26:31.306Z,1011.14
2018-12-26T06:27:41.354Z,1011.15
2018-12-26T06:28:58.789Z,1011.16
2018-12-26T06:30:08.897Z,1011.1
2018-12-26T06:31:18.703Z,1011.13
2018-12-26T06:32:28.773Z,1011.12
2018-12-26T06:33:38.882Z,1011.14
2018-12-26T06:34:48.943Z,1011.15
2018-12-26T06:35:59.008Z,1011.11
2018-12-26T06:37:08.800Z,1011.09
2018-12-26T06:38:18.857Z,1011.06
2018-12-26T06:39:28.652Z,1011.1
2018-12-26T06:40:38.223Z,1011.16
2018-12-26T06:41:47.753Z,1010.99
2018-12-26T06:42:57.670Z,1010.98
2018-12-26T06:44:07.476Z,1011
2018-12-26T06:45:17.535Z,1011.05
2018-12-26T06:46:27.607Z,1011.08
2018-12-26T06:47:37.678Z,1011.1
2018-12-26T06:48:47.751Z,1011.18
2018-12-26T06:49:57.295Z,1011.11
2018-12-26T06:51:07.795Z,1011.12
2018-12-26T06:52:17.837Z,1011.19
2018-12-26T06:53:27.384Z,1011.09
2018-12-26T06:54:37.439Z,1011.11
2018-12-26T06:55:47.507Z,1011.09
2018-12-26T06:56:57.600Z,1011.01
2018-12-26T06:58:07.692Z,1011.03
2018-12-26T06:59:17.489Z,1011.03
2018-12-26T07:00:27.390Z,1010.98
2018-12-26T07:01:37.466Z,1010.95
2018-12-26T07:02:47.274Z,1010.88
2018-12-26T07:03:56.833Z,1010.87
2018-12-26T07:05:06.908Z,1010.87
2018-12-26T07:06:16.703Z,1010.93
2018-12-26T07:07:26.774Z,1010.92
2018-12-26T07:08:36.572Z,1010.93
2018-12-26T07:09:46.632Z,1010.93
2018-12-26T07:10:56.679Z,1010.83
2018-12-26T07:12:06.725Z,1010.82
2018-12-26T07:13:16.764Z,1010.75
2018-12-26T07:14:26.589Z,1010.87
2018-12-26T07:15:36.633Z,1010.81
2018-12-26T07:16:46.725Z,1010.83
2018-12-26T07:17:56.856Z,1010.84
2018-12-26T07:19:06.643Z,1010.83
2018-12-26T07:20:16.714Z,1010.77
2018-12-26T07:21:26.783Z,1010.81
2018-12-26T07:22:36.842Z,1010.76
2018-12-26T07:23:46.372Z,1010.61
2018-12-26T07:24:56.153Z,1010.77
2018-12-26T07:26:06.637Z,1010.78
2018-12-26T07:27:16.689Z,1010.78
2018-12-26T07:28:26.491Z,1010.8
2018-12-26T07:29:36.831Z,1010.73
2018-12-26T07:30:46.892Z,1010.8
2018-12-26T07:31:56.684Z,1010.71
2018-12-26T07:33:06.730Z,1010.69
2018-12-26T07:34:16.803Z,1010.62
2018-12-26T07:35:26.608Z,1010.48
2018-12-26T07:36:36.715Z,1010.5
2018-12-26T07:37:46.263Z,1010.52
2018-12-26T07:38:56.310Z,1010.52
2018-12-26T07:40:06.372Z,1010.59
2018-12-26T07:41:16.773Z,1010.6
2018-12-26T07:42:26.838Z,1010.69
2018-12-26T07:43:36.903Z,1010.74
2018-12-26T07:44:47.018Z,1010.79
2018-12-26T07:45:56.838Z,1010.89
2018-12-26T07:47:06.873Z,1010.87
2018-12-26T07:48:16.936Z,1010.91
2018-12-26T07:49:27.003Z,1010.94
2018-12-26T07:50:37.077Z,1010.88
2018-12-26T07:51:46.933Z,1010.92
2018-12-26T07:52:56.995Z,1010.89
2018-12-26T07:54:07.048Z,1010.84
2018-12-26T07:55:16.845Z,1010.82
2018-12-26T07:56:26.642Z,1010.9
2018-12-26T07:57:36.698Z,1010.74
2018-12-26T07:58:46.754Z,1010.68
2018-12-26T07:59:56.576Z,1010.6
2018-12-26T08:01:08.910Z,1010.61
2018-12-26T08:02:18.735Z,1010.59
2018-12-26T08:03:28.856Z,1010.56
2018-12-26T08:04:38.923Z,1010.55
2018-12-26T08:05:48.980Z,1010.43
2018-12-26T08:06:59.025Z,1010.42
2018-12-26T08:08:08.572Z,1010.44
2018-12-26T08:09:18.682Z,1010.33
2018-12-26T08:10:28.475Z,1010.38
2018-12-26T08:11:38.530Z,1010.42
2018-12-26T08:12:48.346Z,1010.41
2018-12-26T08:13:58.402Z,1010.52
2018-12-26T08:15:10.577Z,1010.48
2018-12-26T08:16:20.922Z,1010.59
2018-12-26T08:17:30.488Z,1010.59
2018-12-26T08:18:40.583Z,1010.63
2018-12-26T08:19:50.643Z,1010.7
2018-12-26T08:21:02.419Z,1010.67
2018-12-26T08:22:12.467Z,1010.73
2018-12-26T08:23:22.295Z,1010.78
2018-12-26T08:24:32.333Z,1010.78
2018-12-26T08:25:42.391Z,1010.8
2018-12-26T08:26:53.614Z,1010.8
2018-12-26T08:28:03.921Z,1010.81
2018-12-26T08:29:14.100Z,1010.79
2018-12-26T08:30:23.904Z,1010.73
2018-12-26T08:31:33.960Z,1010.68
2018-12-26T08:32:44.010Z,1010.65
2018-12-26T08:33:54.074Z,1010.59
2018-12-26T08:35:06.290Z,1010.48
2018-12-26T08:36:16.374Z,1010.47
2018-12-26T08:37:26.421Z,1010.48
2018-12-26T08:38:36.211Z,1010.45
2018-12-26T08:39:46.324Z,1010.49
2018-12-26T08:40:56.387Z,1010.4
2018-12-26T08:42:06.452Z,1010.45
2018-12-26T08:43:16.258Z,1010.51
2018-12-26T08:44:26.315Z,1010.4
2018-12-26T08:45:36.112Z,1010.4
2018-12-26T08:46:46.167Z,1010.42
2018-12-26T08:47:55.448Z,1010.48
2018-12-26T08:49:05.636Z,1010.49
2018-12-26T08:50:15.757Z,1010.53
2018-12-26T08:51:25.816Z,1010.58
2018-12-26T08:52:35.864Z,1010.6
2018-12-26T08:53:45.929Z,1010.51
2018-12-26T08:54:55.999Z,1010.53
2018-12-26T08:56:06.288Z,1010.55
2018-12-26T08:57:16.337Z,1010.5
2018-12-26T08:58:25.941Z,1010.53
2018-12-26T08:59:42.915Z,1010.43
2018-12-26T09:00:52.703Z,1010.51
2018-12-26T09:02:02.885Z,1010.49
2018-12-26T09:03:12.968Z,1010.5
2018-12-26T09:04:22.779Z,1010.53
2018-12-26T09:05:32.829Z,1010.47
2018-12-26T09:06:43.069Z,1010.57
2018-12-26T09:07:53.182Z,1010.49
2018-12-26T09:09:03.251Z,1010.46
2018-12-26T09:10:13.312Z,1010.58
2018-12-26T09:11:22.876Z,1010.58
2018-12-26T09:12:32.778Z,1010.63
2018-12-26T09:13:42.351Z,1010.65
2018-12-26T09:14:52.471Z,1010.64
2018-12-26T09:16:02.283Z,1010.51
2018-12-26T09:17:12.331Z,1010.57
2018-12-26T09:18:22.512Z,1010.54
2018-12-26T09:19:32.582Z,1010.62
2018-12-26T09:20:42.636Z,1010.53
2018-12-26T09:21:52.712Z,1010.42
2018-12-26T09:23:02.527Z,1010.46
2018-12-26T09:24:14.511Z,1010.42
2018-12-26T09:25:24.321Z,1010.5
2018-12-26T09:26:34.374Z,1010.47
2018-12-26T09:27:44.215Z,1010.45
2018-12-26T09:28:54.284Z,1010.54
2018-12-26T09:30:04.344Z,1010.5
2018-12-26T09:31:14.206Z,1010.52
2018-12-26T09:32:24.271Z,1010.59
2018-12-26T09:33:34.090Z,1010.57
2018-12-26T09:34:44.140Z,1010.64
2018-12-26T09:35:53.961Z,1010.64
2018-12-26T09:37:04.137Z,1010.58
2018-12-26T09:38:14.202Z,1010.61
2018-12-26T09:39:24.035Z,1010.55
2018-12-26T09:40:33.870Z,1010.58
2018-12-26T09:41:43.925Z,1010.5
2018-12-26T09:42:54.024Z,1010.38
2018-12-26T09:44:05.744Z,1010.48
2018-12-26T09:45:15.797Z,1010.34
2018-12-26T09:46:25.865Z,1010.42
2018-12-26T09:47:35.927Z,1010.41
2018-12-26T09:48:46.006Z,1010.33
2018-12-26T09:49:56.076Z,1010.36
2018-12-26T09:51:06.254Z,1010.37
2018-12-26T09:52:16.342Z,1010.35
2018-12-26T09:53:26.145Z,1010.3
2018-12-26T09:54:35.734Z,1010.32
2018-12-26T09:55:45.528Z,1010.31
2018-12-26T09:56:55.094Z,1010.33
2018-12-26T09:58:05.263Z,1010.29
2018-12-26T09:59:15.336Z,1010.26
2018-12-26T10:00:25.461Z,1010.25
2018-12-26T10:01:35.285Z,1010.24
2018-12-26T10:02:45.347Z,1010.26
2018-12-26T10:03:55.411Z,1010.24
2018-12-26T10:05:06.592Z,1010.22
2018-12-26T10:06:16.650Z,1010.19
2018-12-26T10:07:26.453Z,1010.19
2018-12-26T10:08:37.625Z,1010.16
2018-12-26T10:09:47.699Z,1010.34
2018-12-26T10:10:57.819Z,1010.17
2018-12-26T10:12:09.484Z,1010.16
2018-12-26T10:13:19.574Z,1010.18
2018-12-26T10:14:29.657Z,1010.15
2018-12-26T10:15:39.747Z,1010.14
2018-12-26T10:16:49.838Z,1010.01
2018-12-26T10:17:59.935Z,1010.02
2018-12-26T10:19:10.020Z,1010.03
2018-12-26T10:20:20.091Z,1010.09
2018-12-26T10:21:30.183Z,1010.07
2018-12-26T10:22:40.262Z,1010.08
2018-12-26T10:23:50.108Z,1010
2018-12-26T10:25:00.261Z,1009.95
2018-12-26T10:26:10.525Z,1009.98
2018-12-26T10:27:20.817Z,1009.93
2018-12-26T10:28:30.645Z,1009.89
2018-12-26T10:29:40.740Z,1009.86
2018-12-26T10:30:50.824Z,1009.84
2018-12-26T10:32:00.956Z,1009.85
2018-12-26T10:33:11.057Z,1009.86
2018-12-26T10:34:20.908Z,1009.78
2018-12-26T10:35:31.259Z,1009.73
2018-12-26T10:36:41.317Z,1009.74
2018-12-26T10:37:51.388Z,1009.76
2018-12-26T10:39:01.815Z,1009.74
2018-12-26T10:40:11.895Z,1009.7
2018-12-26T10:41:22.009Z,1009.97
2018-12-26T10:42:31.839Z,1009.81
2018-12-26T10:43:41.903Z,1009.82
2018-12-26T10:44:51.973Z,1009.77
2018-12-26T10:46:02.090Z,1009.81
2018-12-26T10:47:12.176Z,1009.78
2018-12-26T10:48:22.222Z,1009.74
2018-12-26T10:49:32.296Z,1009.74
2018-12-26T10:50:42.346Z,1009.69
2018-12-26T10:51:52.151Z,1009.69
2018-12-26T10:53:02.236Z,1009.74
2018-12-26T10:54:12.356Z,1009.64
2018-12-26T10:55:22.457Z,1009.66
2018-12-26T10:56:32.543Z,1009.56
2018-12-26T10:57:42.640Z,1009.57
2018-12-26T10:58:52.709Z,1009.55
2018-12-26T11:00:10.446Z,1009.56
2018-12-26T11:01:21.091Z,1009.48
2018-12-26T11:02:31.193Z,1009.49
2018-12-26T11:03:41.307Z,1009.52
2018-12-26T11:04:51.362Z,1009.41
2018-12-26T11:06:01.204Z,1009.44
2018-12-26T11:07:11.051Z,1009.47
2018-12-26T11:08:21.154Z,1009.47
2018-12-26T11:09:30.966Z,1009.45
2018-12-26T11:10:41.059Z,1009.41
2018-12-26T11:11:51.120Z,1009.47
2018-12-26T11:13:01.861Z,1009.5
2018-12-26T11:14:11.926Z,1009.41
2018-12-26T11:15:22.075Z,1009.49
2018-12-26T11:16:31.906Z,1009.47
2018-12-26T11:17:42.015Z,1009.5
2018-12-26T11:18:51.868Z,1009.49
2018-12-26T11:20:01.963Z,1009.53
2018-12-26T11:21:12.071Z,1009.51
2018-12-26T11:22:22.171Z,1009.47
2018-12-26T11:23:31.736Z,1009.5
2018-12-26T11:24:41.829Z,1009.44
2018-12-26T11:25:51.897Z,1009.5
2018-12-26T11:27:02.038Z,1009.47
2018-12-26T11:28:12.117Z,1009.46
2018-12-26T11:29:21.926Z,1009.47
2018-12-26T11:30:32.021Z,1009.46
2018-12-26T11:31:41.810Z,1009.46
2018-12-26T11:32:51.361Z,1009.43
2018-12-26T11:34:01.976Z,1009.53
2018-12-26T11:35:12.060Z,1009.5
2018-12-26T11:36:22.155Z,1009.51
2018-12-26T11:37:32.238Z,1009.41
2018-12-26T11:38:42.339Z,1009.45
2018-12-26T11:39:52.418Z,1009.38
2018-12-26T11:41:02.334Z,1009.49
2018-12-26T11:42:13.260Z,1009.46
2018-12-26T11:43:23.365Z,1009.41
2018-12-26T11:44:33.476Z,1009.45
2018-12-26T11:45:43.617Z,1009.55
2018-12-26T11:46:53.429Z,1009.51
2018-12-26T11:48:04.663Z,1009.42
2018-12-26T11:49:14.752Z,1009.47
2018-12-26T11:50:24.832Z,1009.48
2018-12-26T11:51:34.908Z,1009.41
2018-12-26T11:52:44.985Z,1009.42
2018-12-26T11:53:55.109Z,1009.4
2018-12-26T11:55:05.194Z,1009.47
2018-12-26T11:56:15.280Z,1009.46
2018-12-26T11:57:25.366Z,1009.42
2018-12-26T11:58:37.394Z,1009.51
2018-12-26T11:59:47.481Z,1009.45
2018-12-26T12:00:57.550Z,1009.57
2018-12-26T12:02:07.642Z,1009.58
2018-12-26T12:03:25.760Z,1009.48
2018-12-26T12:04:35.822Z,1009.5
2018-12-26T12:05:45.899Z,1009.6
2018-12-26T12:06:55.723Z,1009.51
2018-12-26T12:08:06.830Z,1009.51
2018-12-26T12:09:16.883Z,1009.57
2018-12-26T12:10:26.845Z,1009.47
2018-12-26T12:11:36.659Z,1009.51
2018-12-26T12:12:46.810Z,1009.49
2018-12-26T12:13:56.874Z,1009.54
2018-12-26T12:15:06.758Z,1009.56
2018-12-26T12:16:16.590Z,1009.52
2018-12-26T12:17:26.394Z,1009.55
2018-12-26T12:18:36.444Z,1009.53
2018-12-26T12:19:46.526Z,1009.65
2018-12-26T12:20:56.589Z,1009.55
2018-12-26T12:22:06.671Z,1009.62
2018-12-26T12:23:16.229Z,1009.68
2018-12-26T12:24:26.326Z,1009.63
2018-12-26T12:25:36.388Z,1009.53
2018-12-26T12:26:46.480Z,1009.55
2018-12-26T12:27:56.298Z,1009.58
2018-12-26T12:29:06.179Z,1009.52
2018-12-26T12:30:16.284Z,1009.51
2018-12-26T12:31:26.378Z,1009.54
2018-12-26T12:32:36.457Z,1009.55
2018-12-26T12:33:46.370Z,1009.51
2018-12-26T12:34:56.451Z,1009.46
2018-12-26T12:36:06.618Z,1009.47
2018-12-26T12:37:18.338Z,1009.52
2018-12-26T12:38:28.161Z,1009.45
2018-12-26T12:39:38.226Z,1009.43
2018-12-26T12:40:48.352Z,1009.47
2018-12-26T12:41:58.438Z,1009.39
2018-12-26T12:43:08.553Z,1009.41
2018-12-26T12:44:18.106Z,1009.4
2018-12-26T12:45:29.356Z,1009.39
2018-12-26T12:46:39.443Z,1009.37
2018-12-26T12:47:49.553Z,1009.39
2018-12-26T12:48:59.408Z,1009.39
2018-12-26T12:50:09.487Z,1009.4
2018-12-26T12:51:19.548Z,1009.43
2018-12-26T12:52:29.683Z,1009.44
2018-12-26T12:53:39.779Z,1009.38
2018-12-26T12:54:49.859Z,1009.34
2018-12-26T12:55:59.944Z,1009.49
2018-12-26T12:57:17.241Z,1009.44
2018-12-26T12:58:27.348Z,1009.4
2018-12-26T12:59:44.691Z,1009.44
2018-12-26T13:00:54.825Z,1009.36
2018-12-26T13:02:04.896Z,1009.43
2018-12-26T13:03:14.971Z,1009.43
2018-12-26T13:04:25.064Z,1009.42
2018-12-26T13:05:35.171Z,1009.41
2018-12-26T13:06:45.233Z,1009.38
2018-12-26T13:07:55.348Z,1009.4
2018-12-26T13:09:05.401Z,1009.43
2018-12-26T13:10:15.461Z,1009.36
2018-12-26T13:11:25.530Z,1009.41
2018-12-26T13:12:35.590Z,1009.43
2018-12-26T13:13:45.635Z,1009.42
2018-12-26T13:14:55.724Z,1009.45
2018-12-26T13:16:05.822Z,1009.49
2018-12-26T13:17:15.618Z,1009.5
2018-12-26T13:18:25.699Z,1009.48
2018-12-26T13:19:35.888Z,1009.46
2018-12-26T13:20:45.955Z,1009.45
2018-12-26T13:21:56.029Z,1009.48
2018-12-26T13:23:05.930Z,1009.49
2018-12-26T13:24:16.007Z,1009.46
2018-12-26T13:25:26.085Z,1009.48
2018-12-26T13:26:36.139Z,1009.46
2018-12-26T13:27:46.191Z,1009.48
2018-12-26T13:28:56.295Z,1009.48
2018-12-26T13:30:06.367Z,1009.47
2018-12-26T13:31:16.460Z,1009.47
2018-12-26T13:32:26.367Z,1009.37
2018-12-26T13:33:36.447Z,1009.56
2018-12-26T13:34:46.529Z,1009.47
2018-12-26T13:35:56.576Z,1009.48
2018-12-26T13:37:06.380Z,1009.48
2018-12-26T13:38:16.445Z,1009.55
2018-12-26T13:39:26.522Z,1009.5
2018-12-26T13:40:38.090Z,1009.49
2018-12-26T13:41:48.156Z,1009.53
2018-12-26T13:42:58.228Z,1009.46
2018-12-26T13:44:08.748Z,1009.54
2018-12-26T13:45:18.836Z,1009.53
2018-12-26T13:46:33.629Z,1009.53
2018-12-26T13:47:43.920Z,1009.54
2018-12-26T13:48:54.005Z,1009.57
2018-12-26T13:50:03.832Z,1009.47
2018-12-26T13:51:13.885Z,1009.44
2018-12-26T13:52:23.947Z,1009.48
2018-12-26T13:53:34.016Z,1009.48
2018-12-26T13:54:44.095Z,1009.5
2018-12-26T13:55:54.160Z,1009.54
2018-12-26T13:57:04.251Z,1009.48
2018-12-26T13:58:14.358Z,1009.49
2018-12-26T13:59:24.464Z,1009.49
2018-12-26T14:00:34.289Z,1009.5
2018-12-26T14:01:44.359Z,1009.49
2018-12-26T14:02:54.430Z,1009.52
2018-12-26T14:04:04.478Z,1009.51
2018-12-26T14:05:14.542Z,1009.58
2018-12-26T14:06:24.604Z,1009.51
2018-12-26T14:07:34.715Z,1009.58
2018-12-26T14:08:44.518Z,1009.54
2018-12-26T14:09:54.578Z,1009.56
2018-12-26T14:11:04.656Z,1009.55
2018-12-26T14:12:14.698Z,1009.46
2018-12-26T14:13:24.524Z,1009.49
2018-12-26T14:14:34.572Z,1009.43
2018-12-26T14:15:44.634Z,1009.46
2018-12-26T14:16:54.707Z,1009.44
2018-12-26T14:18:04.347Z,1009.4
2018-12-26T14:19:14.183Z,1009.44
2018-12-26T14:20:24.269Z,1009.39
2018-12-26T14:21:34.106Z,1009.33
2018-12-26T14:22:44.181Z,1009.39
2018-12-26T14:23:54.253Z,1009.31
2018-12-26T14:25:03.848Z,1009.31
2018-12-26T14:26:13.921Z,1009.3
2018-12-26T14:27:29.189Z,1009.32
2018-12-26T14:28:39.328Z,1009.35
2018-12-26T14:29:49.407Z,1009.36
2018-12-26T14:30:59.457Z,1009.33
2018-12-26T14:32:10.127Z,1009.4
2018-12-26T14:33:20.186Z,1009.43
2018-12-26T14:34:30.261Z,1009.35
2018-12-26T14:35:40.396Z,1009.37
2018-12-26T14:36:50.195Z,1009.32
2018-12-26T14:38:00.364Z,1009.36
2018-12-26T14:39:10.407Z,1009.35
2018-12-26T14:40:20.475Z,1009.43
2018-12-26T14:41:30.578Z,1009.33
2018-12-26T14:42:40.368Z,1009.35
2018-12-26T14:43:50.215Z,1009.34